createdAt,value
2023-08-11T00:00:09.676Z,66.00
2023-08-11T00:02:40.594Z,66.56
2023-08-11T00:05:09.593Z,67.25
2023-08-11T00:07:36.610Z,67.88
2023-08-11T00:10:04.520Z,68.10
2023-08-11T00:12:31.662Z,68.01
2023-08-11T00:14:58.672Z,68.21
2023-08-11T00:17:25.837Z,68.38
2023-08-11T00:19:52.999Z,69.07
2023-08-11T00:22:20.065Z,69.50
2023-08-11T00:24:48.348Z,69.95
2023-08-11T00:27:15.448Z,71.55
2023-08-11T00:29:42.514Z,72.95
2023-08-11T00:32:09.999Z,74.06
2023-08-11T00:34:37.250Z,75.85
2023-08-11T00:37:05.050Z,76.79
2023-08-11T00:39:32.449Z,76.81
2023-08-11T00:42:00.935Z,76.36
2023-08-11T00:44:27.989Z,74.51
2023-08-11T00:46:55.017Z,74.53
2023-08-11T00:49:22.803Z,74.63
2023-08-11T00:51:50.001Z,75.67
2023-08-11T00:54:18.057Z,76.59
2023-08-11T00:56:46.065Z,75.82
2023-08-11T00:59:13.446Z,73.54
2023-08-11T01:01:41.398Z,72.36
2023-08-11T01:04:08.765Z,72.49
2023-08-11T01:07:06.424Z,73.88
2023-08-11T01:09:48.870Z,74.65
2023-08-11T01:12:36.926Z,74.18
2023-08-11T01:15:09.828Z,72.83
2023-08-11T01:17:40.111Z,72.42
2023-08-11T01:20:12.189Z,73.43
2023-08-11T01:22:45.623Z,75.30
2023-08-11T01:25:14.042Z,76.60
2023-08-11T01:27:46.128Z,77.61
2023-08-11T01:30:14.570Z,77.41
2023-08-11T01:32:41.803Z,77.08
2023-08-11T01:35:10.583Z,77.92
2023-08-11T01:37:38.268Z,79.18
2023-08-11T01:40:12.057Z,80.09
2023-08-11T01:42:46.737Z,80.64
2023-08-11T01:45:22.814Z,79.79
2023-08-11T01:47:51.171Z,78.76
2023-08-11T01:50:19.807Z,77.70
2023-08-11T01:52:48.852Z,79.75
2023-08-11T01:55:18.051Z,80.91
2023-08-11T01:57:57.744Z,81.65
2023-08-11T02:00:28.478Z,82.50
2023-08-11T02:02:57.206Z,80.47
2023-08-11T02:05:26.292Z,79.74
2023-08-11T02:07:54.784Z,79.54
2023-08-11T02:10:22.070Z,81.23
2023-08-11T02:12:52.253Z,83.01
2023-08-11T02:15:20.216Z,83.84
2023-08-11T02:17:47.803Z,82.48
2023-08-11T02:20:23.328Z,80.98
2023-08-11T02:22:52.725Z,78.64
2023-08-11T02:25:20.146Z,78.83
2023-08-11T02:27:48.263Z,80.18
2023-08-11T02:30:15.949Z,81.17
2023-08-11T02:32:43.580Z,82.53
2023-08-11T02:35:11.994Z,81.91
2023-08-11T02:37:40.111Z,80.31
2023-08-11T02:40:10.421Z,78.68
2023-08-11T02:42:45.566Z,79.59
2023-08-11T02:45:12.853Z,81.92
2023-08-11T02:47:40.923Z,83.50
2023-08-11T02:50:09.968Z,83.69
2023-08-11T02:52:37.887Z,82.54
2023-08-11T02:55:06.485Z,80.86
2023-08-11T02:57:34.917Z,78.66
2023-08-11T03:00:05.285Z,78.14
2023-08-11T03:02:33.117Z,80.15
2023-08-11T03:05:00.216Z,81.49
2023-08-11T03:07:27.439Z,81.72
2023-08-11T03:09:57.065Z,80.56
2023-08-11T03:12:24.366Z,78.19
2023-08-11T03:14:51.541Z,76.87
2023-08-11T03:17:18.572Z,75.70
2023-08-11T03:19:45.652Z,75.48
2023-08-11T03:22:12.821Z,76.40
2023-08-11T03:24:40.707Z,78.03
2023-08-11T03:27:08.013Z,80.06
2023-08-11T03:29:35.505Z,81.98
2023-08-11T03:32:02.969Z,83.10
2023-08-11T03:34:31.751Z,82.88
2023-08-11T03:36:59.293Z,82.16
2023-08-11T03:39:27.092Z,82.20
2023-08-11T03:41:54.068Z,82.05
2023-08-11T03:44:22.586Z,81.12
2023-08-11T03:46:50.809Z,79.08
2023-08-11T03:49:18.355Z,77.60
2023-08-11T03:51:45.552Z,78.00
2023-08-11T03:54:13.241Z,79.70
2023-08-11T03:56:41.041Z,79.03
2023-08-11T03:59:09.022Z,77.23
2023-08-11T04:01:36.919Z,75.43
2023-08-11T04:04:04.138Z,73.96
2023-08-11T04:06:34.055Z,72.45
2023-08-11T04:09:03.128Z,71.90
2023-08-11T04:11:31.284Z,70.59
2023-08-11T04:13:58.304Z,71.88
2023-08-11T04:16:25.722Z,72.46
2023-08-11T04:18:52.684Z,72.04
2023-08-11T04:21:19.879Z,70.66
2023-08-11T04:23:46.887Z,69.77
2023-08-11T04:26:15.264Z,69.95
2023-08-11T04:28:44.945Z,68.73
2023-08-11T04:31:15.112Z,68.47
2023-08-11T04:33:42.833Z,68.01
2023-08-11T04:36:11.785Z,67.80
2023-08-11T04:38:40.793Z,68.91
2023-08-11T04:41:09.100Z,70.18
2023-08-11T04:43:36.149Z,69.66
2023-08-11T04:46:05.454Z,70.42
2023-08-11T04:48:33.855Z,72.26
2023-08-11T04:51:00.941Z,74.16
2023-08-11T04:53:28.918Z,75.36
2023-08-11T04:55:56.086Z,76.32
2023-08-11T04:58:23.408Z,77.99
2023-08-11T05:00:51.288Z,80.28
2023-08-11T05:03:20.236Z,81.18
2023-08-11T05:05:47.314Z,81.64
2023-08-11T05:08:14.661Z,81.96
2023-08-11T05:10:41.704Z,83.58
2023-08-11T05:13:08.701Z,84.05
2023-08-11T05:15:36.313Z,83.11
2023-08-11T05:18:03.652Z,81.72
2023-08-11T05:20:30.699Z,80.24
2023-08-11T05:22:57.764Z,80.37
2023-08-11T05:25:24.910Z,79.02
2023-08-11T05:27:51.941Z,78.17
2023-08-11T05:30:19.517Z,77.96
2023-08-11T05:32:46.607Z,76.61
2023-08-11T05:35:15.282Z,75.89
2023-08-11T05:37:42.576Z,75.46
2023-08-11T05:40:10.636Z,74.01
2023-08-11T05:42:38.996Z,72.51
2023-08-11T05:45:06.662Z,70.52
2023-08-11T05:47:36.941Z,69.83
2023-08-11T05:50:04.456Z,68.93
2023-08-11T05:52:31.620Z,68.18
2023-08-11T05:54:59.146Z,69.27
2023-08-11T05:57:26.085Z,69.43
2023-08-11T05:59:55.837Z,70.24
2023-08-11T06:02:23.299Z,71.88
2023-08-11T06:04:52.352Z,72.88
2023-08-11T06:07:19.416Z,74.07
2023-08-11T06:09:46.470Z,74.58
2023-08-11T06:12:13.511Z,74.41
2023-08-11T06:14:40.641Z,74.19
2023-08-11T06:17:09.933Z,74.14
2023-08-11T06:19:39.680Z,74.18
2023-08-11T06:22:07.937Z,74.46
2023-08-11T06:24:35.059Z,74.56
2023-08-11T06:27:02.633Z,74.45
2023-08-11T06:29:29.834Z,74.63
2023-08-11T06:31:57.429Z,74.33
2023-08-11T06:34:24.726Z,74.96
2023-08-11T06:36:51.725Z,74.02
2023-08-11T06:39:18.745Z,71.85
2023-08-11T06:41:45.882Z,69.64
2023-08-11T06:44:13.495Z,67.53
2023-08-11T06:46:40.545Z,66.90
2023-08-11T06:49:07.656Z,66.94
2023-08-11T06:51:34.745Z,66.98
2023-08-11T06:54:01.858Z,67.53
2023-08-11T06:56:28.992Z,67.06
2023-08-11T06:58:56.184Z,67.32
2023-08-11T07:01:23.242Z,66.22
2023-08-11T07:03:51.067Z,66.12
2023-08-11T07:06:18.208Z,65.09
2023-08-11T07:08:45.253Z,65.80
2023-08-11T07:11:12.916Z,65.54
2023-08-11T07:13:40.060Z,66.80
2023-08-11T07:16:07.111Z,66.41
2023-08-11T07:18:34.059Z,65.04
2023-08-11T07:21:01.060Z,63.83
2023-08-11T07:23:28.600Z,61.16
2023-08-11T07:25:55.970Z,57.69
2023-08-11T07:28:23.284Z,55.72
2023-08-11T07:30:50.337Z,55.08
2023-08-11T07:33:17.418Z,53.56
2023-08-11T07:35:45.095Z,53.73
2023-08-11T07:38:12.785Z,55.12
2023-08-11T07:40:40.549Z,55.51
2023-08-11T07:43:08.010Z,57.18
2023-08-11T07:45:35.292Z,56.52
2023-08-11T07:48:02.646Z,56.88
2023-08-11T07:50:29.826Z,56.89
2023-08-11T07:52:57.792Z,57.91
2023-08-11T07:55:25.009Z,58.73
2023-08-11T07:57:52.502Z,58.87
2023-08-11T08:00:22.609Z,58.03
2023-08-11T08:02:50.111Z,57.71
2023-08-11T08:05:17.493Z,57.65
2023-08-11T08:07:44.620Z,57.41
2023-08-11T08:10:12.687Z,58.07
2023-08-11T08:12:41.169Z,59.11
2023-08-11T08:15:10.417Z,59.78
2023-08-11T08:17:39.365Z,58.58
2023-08-11T08:20:10.649Z,59.40
2023-08-11T08:22:38.151Z,59.69
2023-08-11T08:25:08.909Z,60.29
2023-08-11T08:27:38.088Z,61.58
2023-08-11T08:30:06.595Z,63.50
2023-08-11T08:32:35.432Z,64.09
2023-08-11T08:35:02.597Z,65.12
2023-08-11T08:37:32.830Z,65.25
2023-08-11T08:40:00.410Z,65.51
2023-08-11T08:42:27.931Z,66.67
2023-08-11T08:44:55.565Z,66.24
2023-08-11T08:47:23.508Z,66.09
2023-08-11T08:49:52.098Z,67.86
2023-08-11T08:52:20.200Z,68.46
2023-08-11T08:54:48.166Z,69.05
2023-08-11T08:57:17.354Z,68.84
2023-08-11T08:59:44.733Z,65.51
2023-08-11T09:02:14.373Z,65.19
2023-08-11T09:04:43.229Z,66.81
2023-08-11T09:07:12.308Z,66.65
2023-08-11T09:09:39.504Z,67.99
2023-08-11T09:12:06.629Z,69.85
2023-08-11T09:14:33.810Z,70.70
2023-08-11T09:17:03.920Z,69.61
2023-08-11T09:19:31.829Z,68.57
2023-08-11T09:21:58.880Z,68.09
2023-08-11T09:24:25.922Z,68.69
2023-08-11T09:26:53.945Z,69.08
2023-08-11T09:29:21.371Z,69.67
2023-08-11T09:31:50.815Z,69.26
2023-08-11T09:34:19.163Z,69.61
2023-08-11T09:36:49.237Z,68.29
2023-08-11T09:39:16.723Z,68.47
2023-08-11T09:41:49.434Z,68.52
2023-08-11T09:44:18.586Z,70.27
2023-08-11T09:46:47.611Z,70.37
2023-08-11T09:49:15.570Z,71.12
2023-08-11T09:51:43.859Z,71.42
2023-08-11T09:54:12.245Z,70.32
2023-08-11T09:56:43.548Z,69.82
2023-08-11T09:59:19.930Z,70.09
2023-08-11T10:01:48.369Z,70.42
2023-08-11T10:04:31.248Z,71.16
2023-08-11T10:07:00.950Z,71.32
2023-08-11T10:09:33.174Z,70.91
2023-08-11T10:12:00.963Z,71.29
2023-08-11T10:14:30.112Z,71.42
2023-08-11T10:17:00.810Z,71.23
2023-08-11T10:19:28.643Z,71.74
2023-08-11T10:21:58.255Z,72.36
2023-08-11T10:24:26.684Z,73.06
2023-08-11T10:26:54.109Z,73.53
2023-08-11T10:29:22.266Z,73.48
2023-08-11T10:32:00.205Z,72.62
2023-08-11T10:34:28.081Z,72.77
2023-08-11T10:36:56.697Z,73.03
2023-08-11T10:39:25.056Z,73.36
2023-08-11T10:41:52.412Z,72.75
2023-08-11T10:44:27.861Z,72.72
2023-08-11T10:46:58.348Z,72.46
2023-08-11T10:49:34.407Z,71.61
2023-08-11T10:52:03.867Z,71.25
2023-08-11T10:54:31.355Z,71.55
2023-08-11T10:57:01.650Z,71.84
2023-08-11T10:59:31.499Z,71.74
2023-08-11T11:02:01.098Z,71.67
2023-08-11T11:04:31.072Z,72.02
2023-08-11T11:07:00.307Z,71.65
2023-08-11T11:09:29.254Z,71.62
2023-08-11T11:11:57.859Z,72.02
2023-08-11T11:14:29.236Z,71.91
2023-08-11T11:17:01.144Z,72.18
2023-08-11T11:19:29.090Z,71.97
2023-08-11T11:21:56.428Z,71.57
2023-08-11T11:24:23.632Z,70.61
2023-08-11T11:26:50.922Z,70.85
2023-08-11T11:29:24.365Z,70.89
2023-08-11T11:31:52.254Z,71.15
2023-08-11T11:34:19.778Z,70.15
2023-08-11T11:36:47.989Z,69.44
2023-08-11T11:39:15.746Z,68.51
2023-08-11T11:41:42.812Z,68.47
2023-08-11T11:44:09.804Z,68.09
2023-08-11T11:46:37.085Z,67.04
2023-08-11T11:49:09.606Z,64.78
2023-08-11T11:51:43.595Z,61.01
2023-08-11T11:54:10.687Z,58.93
2023-08-11T11:56:39.735Z,58.13
2023-08-11T11:59:09.395Z,57.79
2023-08-11T12:01:38.023Z,56.20
2023-08-11T12:04:05.345Z,55.28
2023-08-11T12:06:32.493Z,53.46
2023-08-11T12:09:10.325Z,53.67
2023-08-11T12:11:40.763Z,55.65
2023-08-11T12:14:08.849Z,57.53
2023-08-11T12:16:36.561Z,59.86
2023-08-11T12:19:04.581Z,61.58
2023-08-11T12:21:32.562Z,63.29
2023-08-11T12:23:59.932Z,64.41
2023-08-11T12:26:27.894Z,65.66
2023-08-11T12:28:55.615Z,65.90
2023-08-11T12:31:23.396Z,66.04
2023-08-11T12:33:50.558Z,66.66
2023-08-11T12:36:17.839Z,67.22
2023-08-11T12:38:45.149Z,67.39
2023-08-11T12:41:12.390Z,68.17
2023-08-11T12:43:39.454Z,68.49
2023-08-11T12:46:06.781Z,69.20
2023-08-11T12:48:33.956Z,69.96
2023-08-11T12:51:02.691Z,70.05
2023-08-11T12:53:29.958Z,70.30
2023-08-11T12:55:57.398Z,70.07
2023-08-11T12:58:24.764Z,70.10
2023-08-11T13:00:52.020Z,70.33
2023-08-11T13:03:19.356Z,70.50
2023-08-11T13:05:46.337Z,70.42
2023-08-11T13:08:13.456Z,70.70
2023-08-11T13:10:40.372Z,71.01
2023-08-11T13:13:07.466Z,71.27
2023-08-11T13:15:34.511Z,71.34
2023-08-11T13:18:02.122Z,71.73
2023-08-11T13:20:29.461Z,71.91
2023-08-11T13:22:56.540Z,72.20
2023-08-11T13:25:24.336Z,72.30
2023-08-11T13:27:51.498Z,72.32
2023-08-11T13:30:20.813Z,72.77
2023-08-11T13:32:47.966Z,73.46
2023-08-11T13:35:15.132Z,73.22
2023-08-11T13:37:42.247Z,73.45
2023-08-11T13:40:10.509Z,73.67
2023-08-11T13:42:38.049Z,73.57
2023-08-11T13:45:06.766Z,73.93
2023-08-11T13:47:33.777Z,73.82
2023-08-11T13:50:00.807Z,73.16
2023-08-11T13:52:27.842Z,72.82
2023-08-11T13:55:02.432Z,72.86
2023-08-11T13:57:32.703Z,72.31
2023-08-11T14:00:01.055Z,72.21
2023-08-11T14:02:29.441Z,72.27
2023-08-11T14:04:56.672Z,72.18
2023-08-11T14:07:32.274Z,71.77
2023-08-11T14:10:01.746Z,71.30
2023-08-11T14:12:32.124Z,71.10
2023-08-11T14:15:01.528Z,70.82
2023-08-11T14:17:31.293Z,70.71
2023-08-11T14:19:58.679Z,70.38
2023-08-11T14:22:25.882Z,70.06
2023-08-11T14:24:55.976Z,69.98
2023-08-11T14:27:23.705Z,69.80
2023-08-11T14:29:53.309Z,69.59
2023-08-11T14:32:25.503Z,69.42
2023-08-11T14:34:54.222Z,69.36
2023-08-11T14:37:22.188Z,69.72
2023-08-11T14:39:49.295Z,69.65
2023-08-11T14:42:16.508Z,69.94
2023-08-11T14:44:46.321Z,69.70
2023-08-11T14:47:16.639Z,70.05
2023-08-11T14:49:44.651Z,70.16
2023-08-11T14:52:12.846Z,70.62
2023-08-11T14:54:40.843Z,71.63
2023-08-11T14:57:08.869Z,71.73
2023-08-11T14:59:36.121Z,72.13
2023-08-11T15:02:03.149Z,72.59
2023-08-11T15:04:30.209Z,73.08
2023-08-11T15:06:57.383Z,73.50
2023-08-11T15:09:24.494Z,73.41
2023-08-11T15:11:51.864Z,73.93
2023-08-11T15:14:18.846Z,74.63
2023-08-11T15:16:46.535Z,75.54
2023-08-11T15:19:13.619Z,75.88
2023-08-11T15:21:40.798Z,76.30
2023-08-11T15:24:08.839Z,76.03
2023-08-11T15:26:39.594Z,76.75
2023-08-11T15:29:06.955Z,76.86
2023-08-11T15:31:34.039Z,76.77
2023-08-11T15:34:01.060Z,76.80
2023-08-11T15:36:28.259Z,76.60
2023-08-11T15:38:55.871Z,76.71
2023-08-11T15:41:22.978Z,76.18
2023-08-11T15:43:50.580Z,76.08
2023-08-11T15:46:17.651Z,78.13
2023-08-11T15:48:45.048Z,77.98
2023-08-11T15:51:12.109Z,77.70
2023-08-11T15:53:39.443Z,76.33
2023-08-11T15:56:06.697Z,76.41
2023-08-11T15:58:33.802Z,78.12
2023-08-11T16:01:03.685Z,77.31
2023-08-11T16:03:31.251Z,77.54
2023-08-11T16:05:58.478Z,77.58
2023-08-11T16:08:25.458Z,76.89
2023-08-11T16:10:52.552Z,77.18
2023-08-11T16:13:19.745Z,77.13
2023-08-11T16:15:46.770Z,77.82
2023-08-11T16:18:13.868Z,78.21
2023-08-11T16:20:40.846Z,79.03
2023-08-11T16:23:08.006Z,79.39
2023-08-11T16:25:35.210Z,79.29
2023-08-11T16:28:03.490Z,79.49
2023-08-11T16:30:31.098Z,79.45
2023-08-11T16:32:58.148Z,77.58
2023-08-11T16:35:25.248Z,75.39
2023-08-11T16:37:52.299Z,73.86
2023-08-11T16:40:19.339Z,72.83
2023-08-11T16:42:46.965Z,72.20
2023-08-11T16:45:13.954Z,71.22
2023-08-11T16:47:41.015Z,69.52
2023-08-11T16:50:08.374Z,68.12
2023-08-11T16:52:35.499Z,68.46
2023-08-11T16:55:03.672Z,67.78
2023-08-11T16:57:31.111Z,67.46
2023-08-11T16:59:58.190Z,68.56
2023-08-11T17:02:25.355Z,67.96
2023-08-11T17:04:52.521Z,67.93
2023-08-11T17:07:19.575Z,66.25
2023-08-11T17:09:46.694Z,65.86
2023-08-11T17:12:14.206Z,65.58
2023-08-11T17:14:41.705Z,65.92
2023-08-11T17:17:08.902Z,65.01
2023-08-11T17:19:37.589Z,64.55
2023-08-11T17:22:05.256Z,64.71
2023-08-11T17:24:32.479Z,64.55
2023-08-11T17:26:59.584Z,63.66
2023-08-11T17:29:26.748Z,63.97
2023-08-11T17:31:53.912Z,64.00
2023-08-11T17:34:21.158Z,64.30
2023-08-11T17:36:50.845Z,64.45
2023-08-11T17:39:19.091Z,65.52
2023-08-11T17:41:49.567Z,66.44
2023-08-11T17:44:18.631Z,66.29
2023-08-11T17:46:46.145Z,66.80
2023-08-11T17:49:13.656Z,66.61
2023-08-11T17:51:42.337Z,66.82
2023-08-11T17:54:10.564Z,67.37
2023-08-11T17:56:39.330Z,68.20
2023-08-11T17:59:08.384Z,69.75
2023-08-11T18:01:40.663Z,70.66
2023-08-11T18:04:11.370Z,70.34
2023-08-11T18:06:44.289Z,70.21
2023-08-11T18:09:12.318Z,70.01
2023-08-11T18:11:40.577Z,68.91
2023-08-11T18:14:07.775Z,68.68
2023-08-11T18:16:34.937Z,69.07
2023-08-11T18:19:02.190Z,69.37
2023-08-11T18:21:29.585Z,69.49
2023-08-11T18:23:57.081Z,69.24
2023-08-11T18:26:25.032Z,69.85
2023-08-11T18:28:52.350Z,68.98
2023-08-11T18:31:20.343Z,68.51
2023-08-11T18:33:47.438Z,68.17
2023-08-11T18:36:14.745Z,69.28
2023-08-11T18:38:46.150Z,68.21
2023-08-11T18:41:13.532Z,68.86
2023-08-11T18:43:40.920Z,69.51
2023-08-11T18:46:08.095Z,67.88
2023-08-11T18:48:35.453Z,68.68
2023-08-11T18:51:02.680Z,67.76
2023-08-11T18:53:30.680Z,67.81
2023-08-11T18:55:59.196Z,67.58
2023-08-11T18:58:26.392Z,67.95
2023-08-11T19:00:53.922Z,67.74
2023-08-11T19:03:21.200Z,67.92
2023-08-11T19:05:48.393Z,67.02
2023-08-11T19:08:16.391Z,66.38
2023-08-11T19:10:45.186Z,65.49
2023-08-11T19:13:13.194Z,64.90
2023-08-11T19:15:41.470Z,64.20
2023-08-11T19:18:08.881Z,63.83
2023-08-11T19:20:35.874Z,62.44
2023-08-11T19:23:03.070Z,61.06
2023-08-11T19:25:30.714Z,60.16
2023-08-11T19:27:57.919Z,58.78
2023-08-11T19:30:26.799Z,57.72
2023-08-11T19:32:54.994Z,58.05
2023-08-11T19:35:23.999Z,57.77
2023-08-11T19:37:51.559Z,59.05
2023-08-11T19:40:18.767Z,59.74
2023-08-11T19:42:46.959Z,59.84
2023-08-11T19:45:14.037Z,59.44
2023-08-11T19:47:41.043Z,59.58
2023-08-11T19:50:08.606Z,59.47
2023-08-11T19:52:35.923Z,59.89
2023-08-11T19:55:03.016Z,58.82
2023-08-11T19:57:31.130Z,58.43
2023-08-11T19:59:58.202Z,58.74
2023-08-11T20:02:26.426Z,58.35
2023-08-11T20:04:53.507Z,55.75
2023-08-11T20:07:22.752Z,53.56
2023-08-11T20:09:49.892Z,52.89
2023-08-11T20:12:16.977Z,51.25
2023-08-11T20:14:43.963Z,52.49
2023-08-11T20:17:11.149Z,52.58
2023-08-11T20:19:38.671Z,53.16
2023-08-11T20:22:05.973Z,51.99
2023-08-11T20:24:33.256Z,51.97
2023-08-11T20:27:10.396Z,51.38
2023-08-11T20:29:37.712Z,50.40
2023-08-11T20:32:07.565Z,50.86
2023-08-11T20:34:34.539Z,50.47
2023-08-11T20:37:02.652Z,50.14
2023-08-11T20:39:29.676Z,49.43
2023-08-11T20:41:58.857Z,49.92
2023-08-11T20:44:26.075Z,50.10
2023-08-11T20:46:53.888Z,50.11
2023-08-11T20:49:21.023Z,51.37
2023-08-11T20:51:48.169Z,52.21
2023-08-11T20:54:15.124Z,52.48
2023-08-11T20:56:42.286Z,52.47
2023-08-11T20:59:09.927Z,52.80
2023-08-11T21:01:37.074Z,52.78
2023-08-11T21:04:04.493Z,53.58
2023-08-11T21:06:31.845Z,54.16
2023-08-11T21:08:58.868Z,53.90
2023-08-11T21:11:25.861Z,54.27
2023-08-11T21:13:55.891Z,53.73
2023-08-11T21:16:23.074Z,54.34
2023-08-11T21:18:51.497Z,54.32
2023-08-11T21:21:18.712Z,54.38
2023-08-11T21:23:46.010Z,55.02
2023-08-11T21:26:13.502Z,55.24
2023-08-11T21:28:40.877Z,55.28
2023-08-11T21:31:18.043Z,54.47
2023-08-11T21:34:12.674Z,54.43
2023-08-11T21:36:41.778Z,54.46
2023-08-11T21:39:12.756Z,54.73
2023-08-11T21:41:40.282Z,54.39
2023-08-11T21:44:10.973Z,55.16
2023-08-11T21:46:40.136Z,54.54
2023-08-11T21:49:07.272Z,55.28
2023-08-11T21:51:34.286Z,56.35
2023-08-11T21:54:01.346Z,57.14
2023-08-11T21:56:28.438Z,57.91
2023-08-11T21:58:55.432Z,60.00
2023-08-11T22:01:22.461Z,61.48
2023-08-11T22:03:49.447Z,62.58
2023-08-11T22:06:16.480Z,63.31
2023-08-11T22:08:43.812Z,63.92
2023-08-11T22:11:30.419Z,64.65
2023-08-11T22:14:04.548Z,65.22
2023-08-11T22:16:32.411Z,66.00
2023-08-11T22:18:59.716Z,66.32
2023-08-11T22:21:26.942Z,66.64
2023-08-11T22:23:53.924Z,66.71
2023-08-11T22:26:20.935Z,66.63
2023-08-11T22:28:48.133Z,67.24
2023-08-11T22:31:15.391Z,67.82
2023-08-11T22:33:42.542Z,68.34
2023-08-11T22:36:09.892Z,68.80
2023-08-11T22:38:36.915Z,69.83
2023-08-11T22:41:04.195Z,70.60
2023-08-11T22:43:31.348Z,70.98
2023-08-11T22:45:58.494Z,71.77
2023-08-11T22:48:26.089Z,71.89
2023-08-11T22:50:53.103Z,72.00
2023-08-11T22:53:20.601Z,72.32
2023-08-11T22:55:47.791Z,72.17
2023-08-11T22:58:14.788Z,72.05
2023-08-11T23:00:41.813Z,72.21
2023-08-11T23:03:08.996Z,72.32
2023-08-11T23:05:36.236Z,72.03
2023-08-11T23:08:03.563Z,71.89
2023-08-11T23:10:30.574Z,70.98
2023-08-11T23:12:57.802Z,69.35
2023-08-11T23:15:32.772Z,68.76
2023-08-11T23:18:02.045Z,68.58
2023-08-11T23:20:29.132Z,68.79
2023-08-11T23:22:56.177Z,69.28
2023-08-11T23:25:23.210Z,69.85
2023-08-11T23:27:50.301Z,70.05
2023-08-11T23:30:17.331Z,70.50
2023-08-11T23:32:44.370Z,70.91
2023-08-11T23:35:11.423Z,71.14
2023-08-11T23:37:38.441Z,70.33
2023-08-11T23:40:05.950Z,70.41
2023-08-11T23:42:33.048Z,70.06
2023-08-11T23:45:00.123Z,69.24
2023-08-11T23:47:27.371Z,69.19
2023-08-11T23:49:54.544Z,68.94
2023-08-11T23:52:23.292Z,71.38
2023-08-11T23:54:53.654Z,72.23
2023-08-11T23:57:23.068Z,71.42
2023-08-11T23:59:50.292Z,69.57
